Tuesday, June 19, 2018, 1:02 AM EDT
Back to Local

KOXB, Ocean City Municipal Airport

Location: Berlin, MD, United States Lat: 38.317
Local Time: 1:02 AM EDT ( 5:02 GMT) Lon: -75.117
Time Zone: US/Eastern Elev: 13 ft

Show me the last for .
Show Decoded

2018-06-18 23:53 METAR KOXB 190353Z AUTO 22006KT 10SM CLR 25/19 A2990 RMK AO2 SLP125 T02500194 =
2018-06-18 22:53 METAR KOXB 190253Z AUTO 22006KT 10SM CLR 25/19 A2992 RMK AO2 SLP132 T02500194
                 53004 =
2018-06-18 21:53 METAR KOXB 190153Z AUTO 23005KT 10SM CLR 24/18 A2992 RMK AO2 SLP131 T02440183 =
2018-06-18 20:53 METAR KOXB 190053Z AUTO 22005KT 10SM CLR 24/21 A2991 RMK AO2 SLP127 T02440211 =
2018-06-18 19:53 METAR KOXB 182353Z AUTO 23005KT 10SM CLR 26/19 A2991 RMK AO2 SLP128 T02560194
                 10267 20239 56023 =
2018-06-18 18:53 METAR KOXB 182253Z AUTO 20006KT 10SM CLR 24/22 A2993 RMK AO2 SLP135 T02440222 =
2018-06-18 17:53 METAR KOXB 182153Z AUTO 18006KT 10SM CLR 25/23 A2995 RMK AO2 SLP143 T02500228 =
2018-06-18 16:53 METAR KOXB 182053Z AUTO VRB06KT 10SM CLR 25/23 A2998 RMK AO2 SLP151 T02500233
                 56013 =
2018-06-18 15:53 METAR KOXB 181953Z AUTO 20006KT 10SM FEW004 26/23 A2999 RMK AO2 SLP156 T02560233
                 =
2018-06-18 15:50 METAR KOXB 181950Z AUTO 19005KT 10SM FEW004 25/23 A3000 RMK AO2 =
2018-06-18 14:53 METAR KOXB 181853Z AUTO 17005KT 10SM CLR 25/23 A3002 RMK AO2 SLP164 T02500228 =
2018-06-18 13:53 METAR KOXB 181753Z AUTO VRB03KT 10SM CLR 27/23 A3004 RMK AO2 SLP170 T02670233
                 10267 20217 58008 =
2018-06-18 12:53 METAR KOXB 181653Z AUTO 18003KT 10SM CLR 25/23 A3005 RMK AO2 SLP175 T02500228 =
2018-06-18 11:53 METAR KOXB 181553Z AUTO 16006KT 10SM CLR 24/22 A3006 RMK AO2 SLP177 T02390222 =
2018-06-18 11:05 METAR KOXB 181505Z AUTO 14005KT 5SM BR SCT004 23/22 A3006 RMK AO2 T02330222 =
2018-06-18 10:53 METAR KOXB 181453Z AUTO VRB04KT 10SM BKN004 24/23 A3006 RMK AO2 CIG 003V006
                 SLP179 T02390228 56006 =
2018-06-18 10:36 METAR KOXB 181436Z AUTO 15004KT 5SM BR OVC004 24/22 A3006 RMK AO2 T02390222 =
2018-06-18 09:53 METAR KOXB 181353Z AUTO 16004KT 7SM OVC002 23/22 A3007 RMK AO2 SLP182 T02280222
                 =
2018-06-18 09:49 METAR KOXB 181349Z AUTO 17003KT 9SM OVC002 22/22 A3007 RMK AO2 =
2018-06-18 09:41 METAR KOXB 181341Z AUTO 00000KT 2SM BR OVC003 22/22 A3007 RMK AO2 T02220222 =
2018-06-18 09:36 METAR KOXB 181336Z AUTO 00000KT 3/4SM BR OVC003 22/22 A3007 RMK AO2 T02220222 =
2018-06-18 09:26 METAR KOXB 181326Z AUTO 19004KT 1 1/2SM BR OVC003 22/22 A3008 RMK AO2 VIS 1/2V4
                 T02220222 =
2018-06-18 09:05 METAR KOXB 181305Z AUTO 00000KT 3SM BR OVC002 22/22 A3008 RMK AO2 T02220222 =
2018-06-18 09:01 METAR KOXB 181301Z AUTO 00000KT 1SM BR OVC002 22/22 A3008 RMK AO2 T02220222 =
2018-06-18 08:53 METAR KOXB 181253Z AUTO 00000KT 1/4SM FG VV002 22/22 A3008 RMK AO2 SLP185
                 T02170217 =
2018-06-18 07:53 METAR KOXB 181153Z AUTO 00000KT 1/4SM FG VV002 22/22 A3008 RMK AO2 SLP186
                 T02170217 10222 20211 50003 =
2018-06-18 06:53 METAR KOXB 181053Z AUTO 00000KT 1/4SM FG VV002 22/22 A3009 RMK AO2 SLP188
                 T02170217 =
2018-06-18 05:53 METAR KOXB 180953Z AUTO 00000KT 1/4SM FG VV002 22/22 A3008 RMK AO2 SLP185
                 T02170217 =
2018-06-18 04:53 METAR KOXB 180853Z AUTO 00000KT 1/4SM FG VV002 22/22 A3007 RMK AO2 SLP183
                 T02170217 55000 =
2018-06-18 04:32 METAR KOXB 180832Z AUTO 00000KT 1/4SM FG VV002 22/22 A3007 RMK AO2 T02170217 =
2018-06-18 04:23 METAR KOXB 180823Z AUTO 24004KT 1/2SM FG VV002 22/22 A3007 RMK AO2 T02170217 =
2018-06-18 04:13 METAR KOXB 180813Z AUTO 25004KT 1 1/2SM BR OVC003 22/22 A3007 RMK AO2 T02170217
                 =
2018-06-18 04:03 METAR KOXB 180803Z AUTO 00000KT 7SM OVC003 22/22 A3007 RMK AO2 T02220217 =
2018-06-18 03:53 METAR KOXB 180753Z AUTO 00000KT 8SM OVC004 22/22 A3007 RMK AO2 SLP181 T02170217
                 =
2018-06-18 03:14 METAR KOXB 180714Z AUTO 00000KT 9SM OVC004 22/22 A3007 RMK AO2 T02170217 =
2018-06-18 02:53 METAR KOXB 180653Z AUTO 21003KT 10SM BKN005 22/21 A3007 RMK AO2 SLP183 T02170211
                 =
2018-06-18 02:48 METAR KOXB 180648Z AUTO VRB03KT 9SM BKN004 22/21 A3007 RMK AO2 =
2018-06-18 02:13 METAR KOXB 180613Z AUTO 20003KT 10SM SCT004 22/21 A3007 RMK AO2 T02170211 =
2018-06-18 01:53 METAR KOXB 180553Z AUTO 00000KT 10SM BKN004 22/22 A3008 RMK AO2 SLP185 60000
                 T02170217 10228 20217 56003 =
2018-06-18 01:50 METAR KOXB 180550Z AUTO 21003KT 10SM BKN004 22/22 A3008 RMK AO2 =
2018-06-18 01:43 METAR KOXB 180543Z AUTO 00000KT 10SM BKN003 22/22 A3008 RMK AO2 T02170217 =
2018-06-18 01:19 METAR KOXB 180519Z AUTO 19003KT 10SM FEW003 23/21 A3008 RMK AO2 T02280211 =

Support USWX by starting your Amazon purchase here.